Time;durP1;ratioP1;P1;durP2;ratioP2;P2;SDS_P1;SDS_P2;PMS_P1;PMS_P2;Temp;Humidity;BMP_temperature;BMP_pressure;BME280_temperature;BME280_humidity;BME280_pressure;Samples;Min_cycle;Max_cycle;Signal;HPM_P1;HPM_P2
2022/05/22 00:01:40;;;;;;;4.60;2.10;;;14.50;99.90;;;;;;5051667;28;20029;-84
2022/05/22 00:04:06;;;;;;;4.35;2.00;;;14.40;99.90;;;;;;5051228;28;20048;-85
2022/05/22 00:06:32;;;;;;;4.47;2.15;;;;;;;;;;5063859;28;20044;-85
2022/05/22 00:08:58;;;;;;;26.25;17.42;;;;;;;;;;5052929;28;20025;-86
2022/05/22 00:11:24;;;;;;;55.03;33.47;;;;;;;;;;5055988;28;20053;-83
2022/05/22 00:13:50;;;;;;;3.63;2.25;;;;;;;;;;5052839;28;20025;-85
2022/05/22 00:19:01;;;;;;;8.70;2.42;;;14.50;99.90;;;;;;5053452;28;20063;-85
2022/05/22 00:21:27;;;;;;;7.03;2.25;;;14.40;99.90;;;;;;5054133;28;20021;-84
2022/05/22 00:23:52;;;;;;;6.75;2.72;;;14.40;99.90;;;;;;5058252;28;20475;-87
2022/05/22 00:26:18;;;;;;;8.38;2.20;;;14.60;99.90;;;;;;5058282;28;20104;-85
2022/05/22 00:28:44;;;;;;;4.88;2.40;;;14.30;99.90;;;;;;5058369;28;20066;-82
2022/05/22 00:31:10;;;;;;;7.60;2.40;;;15.40;99.90;;;;;;5056933;28;20449;-83
2022/05/22 00:33:36;;;;;;;8.63;2.00;;;16.20;99.90;;;;;;5055134;28;20029;-84
2022/05/22 00:36:02;;;;;;;5.50;2.22;;;14.60;99.90;;;;;;5057178;28;20032;-84
2022/05/22 00:38:28;;;;;;;11.50;2.72;;;14.10;99.90;;;;;;5057726;28;20491;-84
2022/05/22 00:40:53;;;;;;;8.48;2.60;;;14.10;99.90;;;;;;5055434;28;20047;-82
2022/05/22 00:43:40;;;;;;;8.00;2.50;;;15.00;99.90;;;;;;5054086;28;20024;-84
2022/05/22 00:46:07;;;;;;;11.38;3.15;;;14.00;99.90;;;;;;5053281;28;20028;-83
2022/05/22 00:48:34;;;;;;;6.18;2.30;;;14.00;99.90;;;;;;5057546;28;20111;-84
2022/05/22 00:51:10;;;;;;;6.13;2.03;;;13.90;99.90;;;;;;5054279;28;20445;-84
2022/05/22 00:53:41;;;;;;;5.15;2.08;;;13.90;99.90;;;;;;5055564;28;20041;-81
2022/05/22 00:56:11;;;;;;;6.65;2.30;;;13.90;99.90;;;;;;5054134;28;20033;-83
2022/05/22 00:58:37;;;;;;;7.00;2.13;;;13.90;99.90;;;;;;5056769;28;20032;-84
2022/05/22 01:01:03;;;;;;;9.63;3.15;;;15.20;99.90;;;;;;5057009;28;20033;-85
2022/05/22 01:03:31;;;;;;;6.65;2.60;;;13.80;99.90;;;;;;5060928;28;20032;-83
2022/05/22 01:06:24;;;;;;;5.03;2.60;;;15.00;99.90;;;;;;5058287;28;20132;-82
2022/05/22 01:08:53;;;;;;;8.63;2.78;;;13.80;99.90;;;;;;5059636;28;20426;-84
2022/05/22 01:11:27;;;;;;;7.28;2.47;;;13.60;99.90;;;;;;5060734;28;20230;-81
2022/05/22 01:14:00;;;;;;;9.55;3.03;;;13.70;99.90;;;;;;5060698;28;20053;-82
2022/05/22 01:16:26;;;;;;;7.75;2.65;;;13.70;99.90;;;;;;5056452;28;20028;-83
2022/05/22 01:18:55;;;;;;;7.85;2.83;;;13.80;99.90;;;;;;5059906;28;20646;-82
2022/05/22 01:21:23;;;;;;;10.55;2.55;;;15.40;99.90;;;;;;5056298;28;20040;-81
2022/05/22 01:23:50;;;;;;;6.95;2.30;;;13.70;99.90;;;;;;5054581;28;20049;-82
2022/05/22 01:26:16;;;;;;;9.13;2.55;;;13.70;99.90;;;;;;5053863;28;20488;-82
2022/05/22 01:28:42;;;;;;;6.43;2.45;;;14.90;99.90;;;;;;5054928;28;20047;-83
2022/05/22 01:31:08;;;;;;;6.55;2.42;;;13.60;99.90;;;;;;5059786;28;20426;-85
2022/05/22 01:33:35;;;;;;;5.72;2.20;;;13.90;99.90;;;;;;5055537;28;20033;-82
2022/05/22 01:36:02;;;;;;;5.78;2.35;;;14.70;99.90;;;;;;5058727;28;20055;-84
2022/05/22 01:38:28;;;;;;;4.35;2.05;;;13.60;99.90;;;;;;5060269;28;20112;-81
2022/05/22 01:40:54;;;;;;;6.43;2.20;;;13.70;99.90;;;;;;5076053;28;20013;-83
2022/05/22 01:43:20;;;;;;;6.90;2.22;;;13.60;99.90;;;;;;5075786;28;20029;-85
2022/05/22 01:45:45;;;;;;;5.22;2.20;;;13.70;99.90;;;;;;5074078;28;20055;-86
2022/05/22 01:48:11;;;;;;;6.13;2.13;;;13.80;99.90;;;;;;5075438;28;20021;-85
2022/05/22 01:50:39;;;;;;;6.95;2.13;;;13.70;99.90;;;;;;5073797;28;20101;-83
2022/05/22 01:53:05;;;;;;;4.82;2.13;;;13.60;99.90;;;;;;5063688;28;20025;-81
2022/05/22 01:55:31;;;;;;;6.90;2.22;;;13.60;99.90;;;;;;5057481;28;20025;-82
2022/05/22 01:57:57;;;;;;;5.00;2.70;;;13.50;99.90;;;;;;5055100;28;20049;-83
2022/05/22 02:00:25;;;;;;;9.13;2.47;;;13.40;99.90;;;;;;5058855;28;20033;-82
2022/05/22 02:02:55;;;;;;;5.90;2.35;;;13.40;99.90;;;;;;5058344;28;20025;-82
2022/05/22 02:05:21;;;;;;;4.68;1.95;;;13.40;99.90;;;;;;5056949;28;20499;-83
2022/05/22 02:10:33;;;;;;;6.65;2.20;;;13.70;99.90;;;;;;5058702;28;20039;-83
2022/05/22 02:12:58;;;;;;;4.40;2.28;;;13.40;99.90;;;;;;5055743;28;20107;-82
2022/05/22 02:15:25;;;;;;;5.78;2.20;;;13.30;99.90;;;;;;5058995;28;20120;-82
2022/05/22 02:17:51;;;;;;;5.65;2.08;;;13.30;99.90;;;;;;5054956;28;20052;-81
2022/05/22 02:20:17;;;;;;;4.82;2.30;;;13.30;99.90;;;;;;5059452;28;20123;-81
2022/05/22 02:22:49;;;;;;;3.30;1.85;;;13.30;99.90;;;;;;5058381;28;20044;-82
2022/05/22 02:25:19;;;;;;;5.72;2.10;;;13.30;99.90;;;;;;5054893;28;20055;-83
2022/05/22 02:27:45;;;;;;;5.57;2.43;;;13.30;99.90;;;;;;5055578;28;20049;-81
2022/05/22 02:30:13;;;;;;;4.03;1.88;;;13.20;99.90;;;;;;5053719;28;20092;-82
2022/05/22 02:32:39;;;;;;;4.78;1.75;;;13.30;99.90;;;;;;5055400;28;20115;-80
2022/05/22 02:35:06;;;;;;;3.70;1.77;;;13.20;99.90;;;;;;5051163;28;20059;-81
2022/05/22 02:37:39;;;;;;;3.65;1.88;;;13.20;99.90;;;;;;5047677;28;20060;-81
2022/05/22 02:40:06;;;;;;;3.58;1.70;;;13.10;99.90;;;;;;5051533;28;20556;-82
2022/05/22 02:42:31;;;;;;;5.60;2.00;;;13.10;99.90;;;;;;5053499;28;20402;-83
2022/05/22 02:44:57;;;;;;;4.18;1.95;;;13.10;99.90;;;;;;5053580;28;20029;-84
2022/05/22 02:47:23;;;;;;;5.57;2.25;;;13.10;99.90;;;;;;5054419;28;20022;-83
2022/05/22 02:49:48;;;;;;;4.57;1.80;;;13.30;99.90;;;;;;5051646;28;20562;-83
2022/05/22 02:52:14;;;;;;;5.18;1.90;;;13.00;99.90;;;;;;5050467;28;20072;-81
2022/05/22 02:54:39;;;;;;;4.95;2.08;;;12.90;99.90;;;;;;5053178;28;20033;-85
2022/05/22 02:57:05;;;;;;;3.53;1.85;;;12.90;99.90;;;;;;5043904;28;20057;-83
2022/05/22 02:59:35;;;;;;;5.78;2.10;;;12.90;99.90;;;;;;5052183;28;20120;-81
2022/05/22 03:02:01;;;;;;;5.57;2.20;;;12.90;99.90;;;;;;5051337;28;20025;-82
2022/05/22 03:04:27;;;;;;;5.28;2.10;;;12.90;99.90;;;;;;5047817;28;20033;-81
2022/05/22 03:06:53;;;;;;;5.55;2.47;;;12.50;99.90;;;;;;5052355;28;20048;-83
2022/05/22 03:09:19;;;;;;;6.03;2.33;;;12.90;99.90;;;;;;5035899;28;20036;-83
2022/05/22 03:11:45;;;;;;;6.03;2.20;;;12.80;99.90;;;;;;5051012;28;20040;-83
2022/05/22 03:14:10;;;;;;;6.20;2.47;;;13.70;99.90;;;;;;5052001;28;20029;-84
2022/05/22 03:16:36;;;;;;;4.63;2.08;;;13.50;99.90;;;;;;5049692;28;20035;-81
2022/05/22 03:19:03;;;;;;;4.75;2.30;;;12.80;99.90;;;;;;5050555;28;20037;-81
2022/05/22 03:21:29;;;;;;;4.90;2.20;;;14.10;99.90;;;;;;5055187;28;20032;-80
2022/05/22 03:23:55;;;;;;;3.28;1.90;;;12.70;99.90;;;;;;5055711;28;20136;-82
2022/05/22 03:26:21;;;;;;;4.15;2.10;;;12.90;99.90;;;;;;5049167;28;20029;-85
2022/05/22 03:28:47;;;;;;;5.40;2.40;;;13.90;99.90;;;;;;5049067;28;20158;-80
2022/05/22 03:31:12;;;;;;;6.07;2.17;;;12.60;99.90;;;;;;5049301;28;20085;-84
2022/05/22 03:33:38;;;;;;;5.68;2.75;;;12.70;99.90;;;;;;5050989;28;20096;-81
2022/05/22 03:36:05;;;;;;;7.50;2.45;;;13.50;99.90;;;;;;5052599;28;20021;-84
2022/05/22 03:38:31;;;;;;;3.95;2.30;;;13.00;99.90;;;;;;5052450;28;20621;-81
2022/05/22 03:40:57;;;;;;;6.75;2.20;;;12.60;99.90;;;;;;5049664;28;20028;-82
2022/05/22 03:43:22;;;;;;;4.20;2.47;;;12.60;99.90;;;;;;5052281;28;20037;-81
2022/05/22 03:45:48;;;;;;;4.15;2.08;;;12.60;99.90;;;;;;5052701;28;20024;-80
2022/05/22 03:48:13;;;;;;;4.03;1.92;;;13.40;99.90;;;;;;5051940;28;20371;-82
2022/05/22 03:50:40;;;;;;;2.67;1.58;;;12.70;99.90;;;;;;5052072;28;20036;-80
2022/05/22 03:53:05;;;;;;;7.68;2.05;;;12.60;99.90;;;;;;5055837;28;20036;-83
2022/05/22 03:58:03;;;;;;;3.83;1.77;;;12.50;99.90;;;;;;5019270;28;20041;-80
2022/05/22 04:00:29;;;;;;;5.55;1.83;;;12.50;99.90;;;;;;5032459;28;20036;-79
2022/05/22 04:02:56;;;;;;;5.45;1.80;;;12.50;99.90;;;;;;5015705;28;20057;-80
2022/05/22 04:05:22;;;;;;;5.05;1.60;;;12.60;99.90;;;;;;5015793;28;20365;-80
2022/05/22 04:07:49;;;;;;;6.72;2.00;;;12.60;99.90;;;;;;4999312;28;20030;-80
2022/05/22 04:10:20;;;;;;;6.82;1.92;;;12.50;99.90;;;;;;4999154;28;20109;-79
2022/05/22 04:12:49;;;;;;;5.20;2.20;;;12.60;99.90;;;;;;5016571;28;20459;-80
2022/05/22 04:15:19;;;;;;;5.50;2.10;;;12.50;99.90;;;;;;5017923;28;20026;-79
2022/05/22 04:17:50;;;;;;;4.05;2.30;;;12.50;99.90;;;;;;5016043;28;20823;-80
2022/05/22 04:20:17;;;;;;;;;;;12.50;99.90;;;;;;5016384;28;20046;-79
2022/05/22 04:26:11;;;;;;;6.80;2.30;;;12.50;99.90;;;;;;5032808;28;20056;-83
2022/05/22 04:28:43;;;;;;;3.95;1.95;;;12.50;99.90;;;;;;5032973;28;20029;-80
2022/05/22 04:31:44;;;;;;;3.20;1.95;;;12.40;99.90;;;;;;5033239;28;20029;-80
2022/05/22 04:34:10;;;;;;;3.88;2.30;;;12.50;99.90;;;;;;5019573;28;20049;-79
2022/05/22 04:36:35;;;;;;;7.68;2.42;;;12.60;99.90;;;;;;5006644;28;20385;-80
2022/05/22 04:39:06;;;;;;;4.75;2.70;;;12.60;99.90;;;;;;5026064;28;20026;-80
2022/05/22 04:41:32;;;;;;;;;;;12.60;99.90;;;;;;5022061;28;20125;-81
2022/05/22 04:43:58;;;;;;;4.55;2.10;;;12.70;99.90;;;;;;5021678;28;20359;-81
2022/05/22 04:46:25;;;;;;;5.10;2.30;;;12.60;99.90;;;;;;5021190;28;20026;-79
2022/05/22 04:48:52;;;;;;;4.60;2.38;;;12.60;99.90;;;;;;5023736;28;20464;-80
2022/05/22 04:51:19;;;;;;;5.57;2.60;;;12.70;99.90;;;;;;5026889;28;20034;-80
2022/05/22 04:53:45;;;;;;;7.35;3.55;;;12.70;99.90;;;;;;5020897;28;20612;-80
2022/05/22 04:56:12;;;;;;;5.05;2.58;;;12.80;99.90;;;;;;5019254;28;20033;-80
2022/05/22 04:58:37;;;;;;;5.43;2.47;;;13.00;99.90;;;;;;5019775;28;20496;-79
2022/05/22 05:01:09;;;;;;;6.53;2.80;;;12.80;99.90;;;;;;5021552;28;20054;-81
2022/05/22 05:03:36;;;;;;;5.03;2.55;;;12.90;99.90;;;;;;5024157;28;20040;-79
2022/05/22 05:06:02;;;;;;;3.58;2.17;;;12.90;99.90;;;;;;5049382;28;20022;-81
2022/05/22 05:08:29;;;;;;;6.05;3.10;;;12.90;99.90;;;;;;5038064;28;20022;-82
2022/05/22 05:10:56;;;;;;;4.88;3.10;;;13.00;99.90;;;;;;5040153;28;20030;-84
2022/05/22 05:13:23;;;;;;;4.35;2.63;;;13.00;99.90;;;;;;5044841;28;20030;-82
2022/05/22 05:16:14;;;;;;;8.52;2.90;;;13.10;99.90;;;;;;5023241;28;20022;-81
2022/05/22 05:18:40;;;;;;;6.57;2.90;;;13.40;99.90;;;;;;5054844;28;20117;-81
2022/05/22 05:21:09;;;;;;;4.13;2.20;;;13.40;99.90;;;;;;5031636;28;20058;-81
2022/05/22 05:23:35;;;;;;;5.35;2.47;;;13.80;99.90;;;;;;5034090;28;20089;-82
2022/05/22 05:26:01;;;;;;;5.47;2.30;;;14.60;99.90;;;;;;5031779;28;20022;-81
2022/05/22 05:28:27;;;;;;;4.30;1.95;;;15.20;99.90;;;;;;5028278;28;20094;-81
2022/05/22 05:30:56;;;;;;;3.80;2.30;;;15.80;99.90;;;;;;5024172;28;20023;-81
2022/05/22 05:33:22;;;;;;;3.05;2.10;;;15.80;99.90;;;;;;5027160;28;20013;-78
2022/05/22 05:35:47;;;;;;;4.60;2.50;;;15.90;99.90;;;;;;5026894;28;20039;-81
2022/05/22 05:38:13;;;;;;;5.95;2.47;;;15.90;99.90;;;;;;5026582;28;20037;-81
2022/05/22 05:40:39;;;;;;;4.70;2.38;;;16.00;99.90;;;;;;5030074;28;20101;-81
2022/05/22 05:43:06;;;;;;;3.67;2.10;;;16.10;99.90;;;;;;5027795;28;20053;-81
2022/05/22 05:45:36;;;;;;;3.63;2.42;;;;;;;;;;5031056;28;20060;-84
2022/05/22 05:48:02;;;;;;;2.88;2.05;;;15.70;99.90;;;;;;5028646;28;20038;-82
2022/05/22 05:50:28;;;;;;;9.48;2.58;;;;;;;;;;5029941;28;20117;-82
2022/05/22 05:52:56;;;;;;;5.85;2.42;;;16.30;99.90;;;;;;5036589;28;20432;-81
2022/05/22 05:55:22;;;;;;;3.65;2.17;;;16.20;99.90;;;;;;5038488;28;20041;-83
2022/05/22 05:57:50;;;;;;;4.60;2.70;;;16.40;99.90;;;;;;5021147;28;20577;-81
2022/05/22 06:00:20;;;;;;;5.72;2.80;;;16.50;99.90;;;;;;5023637;28;20025;-83
2022/05/22 06:02:45;;;;;;;3.80;2.08;;;16.30;99.90;;;;;;5021567;28;20026;-81
2022/05/22 06:05:12;;;;;;;4.38;2.17;;;15.90;99.90;;;;;;5024021;28;20162;-83
2022/05/22 06:07:38;;;;;;;6.00;2.10;;;15.90;99.90;;;;;;5025434;28;20056;-81
2022/05/22 06:10:06;;;;;;;4.85;2.30;;;15.90;99.90;;;;;;5033882;28;20041;-84
2022/05/22 06:12:32;;;;;;;7.05;2.60;;;15.80;99.90;;;;;;5037708;28;20018;-83
2022/05/22 06:14:58;;;;;;;6.55;2.50;;;15.80;99.90;;;;;;5029922;28;20034;-82
2022/05/22 06:17:35;;;;;;;6.03;2.15;;;15.90;99.90;;;;;;5025286;28;20049;-83
2022/05/22 06:20:06;;;;;;;4.43;2.20;;;15.90;99.90;;;;;;5017207;28;20022;-81
2022/05/22 06:22:34;;;;;;;4.40;2.13;;;15.90;99.90;;;;;;5017679;28;20026;-79
2022/05/22 06:25:02;;;;;;;4.32;2.20;;;16.10;99.90;;;;;;5036027;28;20500;-81
2022/05/22 06:27:28;;;;;;;4.32;2.20;;;16.10;99.90;;;;;;5024613;28;20046;-82
2022/05/22 06:29:54;;;;;;;4.07;2.40;;;16.10;99.90;;;;;;5023276;28;20030;-83
2022/05/22 06:32:21;;;;;;;5.85;2.42;;;16.20;99.90;;;;;;5024194;28;20408;-81
2022/05/22 06:34:47;;;;;;;4.00;2.15;;;16.20;99.90;;;;;;5017292;28;20059;-82
2022/05/22 06:37:18;;;;;;;5.78;2.63;;;16.20;99.90;;;;;;5024671;28;20045;-81
2022/05/22 06:39:50;;;;;;;4.28;2.30;;;16.20;99.90;;;;;;5040366;28;20030;-80
2022/05/22 06:42:21;;;;;;;4.07;2.38;;;16.20;99.90;;;;;;5022464;28;20045;-82
2022/05/22 06:44:55;;;;;;;5.10;2.63;;;16.30;99.90;;;;;;5040431;28;20108;-81
2022/05/22 06:47:23;;;;;;;5.32;2.17;;;16.30;99.90;;;;;;5022376;28;20030;-81
2022/05/22 06:49:50;;;;;;;5.68;2.25;;;16.40;99.90;;;;;;5029779;28;20033;-80
2022/05/22 06:52:15;;;;;;;4.93;2.25;;;16.40;99.90;;;;;;5034652;28;20041;-85
2022/05/22 06:54:42;;;;;;;5.25;2.40;;;16.40;99.90;;;;;;5035918;28;20022;-83
2022/05/22 06:57:08;;;;;;;4.13;2.20;;;16.50;99.90;;;;;;5037618;28;20018;-85
2022/05/22 06:59:34;;;;;;;4.65;2.60;;;16.50;99.90;;;;;;5037622;28;20034;-85
2022/05/22 07:02:00;;;;;;;4.88;2.45;;;16.60;99.90;;;;;;5052364;28;20021;-84
2022/05/22 07:04:27;;;;;;;8.40;2.70;;;16.80;99.90;;;;;;5038395;28;20053;-82
2022/05/22 07:06:52;;;;;;;4.82;2.55;;;16.80;99.90;;;;;;5036441;28;20018;-86
2022/05/22 07:09:20;;;;;;;6.65;2.42;;;16.80;99.90;;;;;;5035312;28;20041;-84
2022/05/22 07:11:49;;;;;;;4.25;2.58;;;16.90;99.90;;;;;;5030463;28;20014;-85
2022/05/22 07:14:17;;;;;;;4.70;2.05;;;17.00;99.90;;;;;;5039627;28;20010;-80
2022/05/22 07:16:43;;;;;;;3.28;2.00;;;17.40;99.90;;;;;;5035596;28;20090;-85
2022/05/22 07:19:11;;;;;;;6.10;2.10;;;17.40;99.90;;;;;;5029292;28;20044;-84
2022/05/22 07:21:36;;;;;;;4.75;2.03;;;17.10;99.90;;;;;;5042189;28;20046;-84
2022/05/22 07:24:02;;;;;;;3.42;2.03;;;17.20;99.90;;;;;;5036614;28;20042;-85
2022/05/22 07:26:29;;;;;;;4.40;2.47;;;17.40;99.90;;;;;;5035083;28;20018;-87
2022/05/22 07:28:58;;;;;;;3.08;2.00;;;17.40;99.90;;;;;;5038106;28;20288;-80
2022/05/22 07:31:25;;;;;;;3.40;1.85;;;17.50;99.90;;;;;;5029771;28;20037;-83
2022/05/22 07:33:51;;;;;;;4.65;2.17;;;17.60;99.90;;;;;;5036540;28;20038;-83
2022/05/22 07:36:18;;;;;;;4.75;2.42;;;17.80;99.90;;;;;;5029697;28;20037;-81
2022/05/22 07:38:45;;;;;;;5.57;2.13;;;17.90;99.90;;;;;;5023218;28;20033;-80
2022/05/22 07:41:12;;;;;;;5.47;2.20;;;18.10;99.90;;;;;;5024319;28;20022;-81
2022/05/22 07:43:38;;;;;;;4.53;1.73;;;18.20;99.90;;;;;;5022361;28;20046;-80
2022/05/22 07:46:19;;;;;;;3.85;2.13;;;18.40;99.90;;;;;;5009915;28;20052;-80
2022/05/22 07:48:47;;;;;;;4.43;1.90;;;18.30;99.90;;;;;;5023533;28;20030;-80
2022/05/22 07:51:13;;;;;;;3.20;1.77;;;18.60;99.90;;;;;;5023931;28;20485;-79
2022/05/22 07:53:39;;;;;;;5.13;2.08;;;18.70;99.90;;;;;;5031291;28;20767;-82
2022/05/22 07:56:05;;;;;;;4.78;1.63;;;18.80;99.90;;;;;;5037925;28;20033;-83
2022/05/22 07:58:31;;;;;;;4.50;1.67;;;19.00;99.90;;;;;;5029851;28;20026;-80
2022/05/22 08:00:58;;;;;;;3.03;1.48;;;18.90;99.70;;;;;;5022593;28;20026;-80
2022/05/22 08:03:24;;;;;;;2.78;1.40;;;19.10;99.70;;;;;;5016069;28;20037;-81
2022/05/22 08:05:52;;;;;;;4.55;2.00;;;19.30;99.40;;;;;;5028154;28;20026;-81
2022/05/22 08:08:17;;;;;;;5.38;1.80;;;19.30;99.10;;;;;;5029455;28;20056;-80
2022/05/22 08:10:43;;;;;;;3.55;1.83;;;19.30;99.10;;;;;;5025031;28;20030;-82
2022/05/22 08:13:11;;;;;;;3.72;2.00;;;19.40;99.20;;;;;;5024587;28;20145;-84
2022/05/22 08:15:39;;;;;;;4.22;1.90;;;19.50;99.00;;;;;;5034362;28;20128;-85
2022/05/22 08:18:07;;;;;;;4.22;2.00;;;19.70;98.60;;;;;;5033340;28;20026;-82
2022/05/22 08:20:36;;;;;;;5.28;1.75;;;19.70;98.50;;;;;;5026661;28;20026;-83
2022/05/22 08:23:06;;;;;;;5.38;2.10;;;19.80;98.30;;;;;;5025883;28;20022;-80
2022/05/22 08:25:32;;;;;;;3.50;1.55;;;19.90;97.70;;;;;;5022847;28;20097;-80
2022/05/22 08:27:59;;;;;;;9.38;1.90;;;20.10;97.40;;;;;;5031332;28;20030;-83
2022/05/22 08:30:28;;;;;;;4.13;2.38;;;20.40;97.00;;;;;;5031208;28;20033;-84
2022/05/22 08:32:54;;;;;;;3.08;1.50;;;20.60;96.90;;;;;;5021491;28;20018;-80
2022/05/22 08:35:27;;;;;;;2.85;1.50;;;20.60;95.70;;;;;;5020280;28;20093;-80
2022/05/22 08:37:53;;;;;;;3.88;1.77;;;20.70;95.80;;;;;;5019542;28;20795;-83
2022/05/22 08:40:21;;;;;;;5.00;1.60;;;20.80;95.30;;;;;;5034844;28;20033;-84
2022/05/22 08:43:04;;;;;;;4.30;2.10;;;21.00;95.20;;;;;;5040107;28;20038;-84
2022/05/22 08:45:58;;;;;;;7.32;1.67;;;21.20;94.80;;;;;;5021826;28;20048;-79
2022/05/22 08:48:24;;;;;;;3.60;1.30;;;21.30;93.50;;;;;;5043908;28;20026;-79
2022/05/22 08:50:54;;;;;;;6.22;1.70;;;21.30;92.60;;;;;;5013979;28;20069;-79
2022/05/22 08:53:42;;;;;;;7.15;1.50;;;21.30;92.30;;;;;;5015517;28;20038;-79
2022/05/22 08:59:19;;;;;;;3.80;1.15;;;21.50;90.40;;;;;;5025813;28;20084;-80
2022/05/22 09:02:08;;;;;;;3.28;1.40;;;21.60;89.70;;;;;;5030665;28;20267;-79
2022/05/22 09:04:50;;;;;;;4.53;1.60;;;21.60;89.00;;;;;;5015735;28;20091;-81
2022/05/22 09:07:18;;;;;;;5.15;1.38;;;21.70;88.10;;;;;;5021068;28;20037;-82
2022/05/22 09:09:48;;;;;;;3.05;1.23;;;21.70;87.10;;;;;;5012203;28;20109;-79
2022/05/22 09:12:44;;;;;;;2.97;1.27;;;21.90;85.40;;;;;;5006769;28;20021;-80
2022/05/22 09:15:17;;;;;;;4.00;1.40;;;22.00;84.20;;;;;;5007644;28;20037;-81
2022/05/22 09:17:55;;;;;;;4.88;1.35;;;22.00;82.80;;;;;;5016840;28;20041;-79
2022/05/22 09:20:48;;;;;;;5.47;1.15;;;22.00;84.20;;;;;;5011442;28;20380;-80
2022/05/22 09:23:26;;;;;;;3.65;1.52;;;22.00;83.50;;;;;;5035294;28;20033;-81
2022/05/22 09:26:08;;;;;;;4.18;1.35;;;22.10;83.00;;;;;;5015324;28;20032;-80
2022/05/22 09:28:39;;;;;;;5.10;1.38;;;22.30;83.00;;;;;;5021166;28;20045;-81
2022/05/22 09:31:24;;;;;;;3.65;1.25;;;22.40;82.00;;;;;;5020863;28;20096;-79
2022/05/22 09:34:01;;;;;;;1.95;1.05;;;22.50;81.00;;;;;;5018483;28;20030;-79
2022/05/22 09:36:38;;;;;;;4.82;1.30;;;22.70;80.50;;;;;;5017525;28;20073;-81
2022/05/22 09:39:36;;;;;;;7.43;1.20;;;22.70;80.30;;;;;;5025827;28;20022;-80
2022/05/22 09:42:19;;;;;;;4.32;1.23;;;22.70;78.80;;;;;;5033786;28;20029;-80
2022/05/22 09:45:02;;;;;;;5.50;1.30;;;22.60;78.20;;;;;;5028908;28;20025;-80
2022/05/22 09:47:50;;;;;;;3.45;1.10;;;22.80;75.90;;;;;;5020142;28;20026;-81
2022/05/22 09:50:31;;;;;;;6.57;1.40;;;23.00;73.60;;;;;;5022915;28;20045;-81
2022/05/22 09:53:10;;;;;;;3.28;1.25;;;23.10;72.20;;;;;;5029825;28;20017;-79
2022/05/22 09:58:40;;;;;;;3.22;1.20;;;23.10;73.30;;;;;;5043021;22;20060;-85
2022/05/22 10:01:31;;;;;;;4.25;1.55;;;23.20;73.10;;;;;;5036140;28;20037;-80
2022/05/22 10:04:24;;;;;;;5.47;1.35;;;23.20;72.20;;;;;;5036429;28;20025;-81
2022/05/22 10:06:55;;;;;;;4.78;1.35;;;23.20;72.50;;;;;;5033058;28;20021;-83
2022/05/22 10:09:44;;;;;;;3.03;1.30;;;23.40;71.40;;;;;;5048319;28;20106;-81
2022/05/22 10:12:44;;;;;;;3.35;1.27;;;23.50;70.70;;;;;;5026344;28;20038;-81
2022/05/22 10:15:52;;;;;;;4.70;1.52;;;23.70;70.00;;;;;;5024170;28;20041;-80
2022/05/22 10:18:20;;;;;;;2.90;1.17;;;23.90;68.90;;;;;;5015679;28;20037;-78
2022/05/22 10:21:06;;;;;;;2.42;1.00;;;23.70;68.60;;;;;;5016610;28;20026;-81
2022/05/22 10:23:48;;;;;;;3.60;1.30;;;23.70;67.30;;;;;;5019018;28;20076;-78
2022/05/22 10:26:38;;;;;;;3.00;1.10;;;23.80;67.30;;;;;;5014521;28;20026;-80
2022/05/22 10:29:41;;;;;;;3.08;1.15;;;23.70;66.10;;;;;;5017760;28;20480;-79
2022/05/22 10:32:33;;;;;;;3.13;1.48;;;23.90;65.60;;;;;;5019344;28;20029;-80
2022/05/22 10:35:09;;;;;;;5.07;1.08;;;23.90;65.70;;;;;;5007627;28;20033;-79
2022/05/22 10:37:45;;;;;;;4.05;1.10;;;23.50;66.80;;;;;;5017930;28;20408;-81
2022/05/22 10:40:17;;;;;;;2.30;1.33;;;23.60;66.60;;;;;;5014168;28;20041;-77
2022/05/22 10:42:47;;;;;;;1.67;0.98;;;23.90;66.90;;;;;;5011527;28;20042;-79
2022/05/22 10:45:33;;;;;;;5.53;1.70;;;23.90;66.50;;;;;;5015378;28;20038;-80
2022/05/22 10:48:11;;;;;;;1.90;1.25;;;24.20;65.50;;;;;;5018962;28;20034;-81
2022/05/22 10:50:38;;;;;;;2.75;1.02;;;24.50;64.80;;;;;;5011735;28;20030;-80
2022/05/22 10:53:39;;;;;;;2.83;1.20;;;24.60;64.30;;;;;;5012852;28;20056;-81
2022/05/22 10:56:14;;;;;;;3.65;1.60;;;24.70;62.90;;;;;;5014936;28;20038;-79
2022/05/22 10:58:56;;;;;;;2.67;1.00;;;24.90;63.20;;;;;;5013341;28;20025;-79
2022/05/22 11:01:28;;;;;;;4.15;1.10;;;25.00;61.10;;;;;;5014840;28;20137;-79
2022/05/22 11:04:16;;;;;;;2.95;1.17;;;25.00;61.40;;;;;;5015954;28;20026;-81
2022/05/22 11:07:00;;;;;;;3.97;1.30;;;25.00;61.00;;;;;;5015764;28;20033;-80
2022/05/22 11:09:30;;;;;;;2.65;1.08;;;25.20;60.20;;;;;;5020639;28;20056;-81
2022/05/22 11:12:10;;;;;;;5.65;1.17;;;25.20;59.30;;;;;;5016279;28;20022;-79
2022/05/22 11:14:37;;;;;;;4.05;1.70;;;25.00;59.70;;;;;;5008384;28;20030;-81
2022/05/22 11:17:10;;;;;;;2.05;1.17;;;24.90;60.30;;;;;;5009067;28;20042;-81
2022/05/22 11:19:39;;;;;;;2.83;1.38;;;24.90;60.00;;;;;;5015842;28;20038;-83
2022/05/22 11:22:14;;;;;;;4.85;1.60;;;25.10;60.60;;;;;;5008681;28;20041;-81
2022/05/22 11:25:07;;;;;;;3.10;1.30;;;25.20;61.00;;;;;;5029329;28;20036;-80
2022/05/22 11:28:04;;;;;;;2.83;1.00;;;25.10;60.90;;;;;;5017302;28;20120;-80
2022/05/22 11:30:50;;;;;;;1.98;1.10;;;25.10;61.10;;;;;;5010386;28;20033;-81
2022/05/22 11:33:40;;;;;;;1.80;1.13;;;25.10;62.50;;;;;;5011539;28;20056;-82
2022/05/22 11:36:17;;;;;;;;;;;25.20;61.80;;;;;;5022356;28;20026;-81
2022/05/22 11:39:04;;;;;;;1.85;0.95;;;25.20;60.70;;;;;;5022251;28;19906;-79
2022/05/22 11:41:41;;;;;;;3.05;0.95;;;25.10;59.50;;;;;;5018230;28;20403;-79
2022/05/22 11:44:28;;;;;;;4.00;1.00;;;25.10;60.40;;;;;;5015623;28;20030;-83
2022/05/22 11:47:03;;;;;;;3.08;1.05;;;25.40;60.20;;;;;;5015650;28;20088;-80
2022/05/22 11:49:34;;;;;;;4.30;0.95;;;25.60;59.40;;;;;;5016942;28;20029;-82
2022/05/22 11:52:53;;;;;;;2.63;0.95;;;25.50;59.50;;;;;;5016574;28;20732;-82
2022/05/22 11:55:19;;;;;;;1.52;0.90;;;25.50;59.80;;;;;;5018481;28;20092;-82
2022/05/22 11:58:19;;;;;;;2.60;1.00;;;25.50;58.70;;;;;;5014343;28;20084;-82
2022/05/22 12:00:56;;;;;;;2.25;1.08;;;25.70;58.40;;;;;;5016045;28;20058;-80
2022/05/22 12:04:01;;;;;;;1.95;0.90;;;25.80;58.80;;;;;;5018676;28;20037;-83
2022/05/22 12:06:44;;;;;;;1.77;0.85;;;25.70;58.50;;;;;;5016192;28;20033;-81
2022/05/22 12:09:19;;;;;;;2.90;0.93;;;25.70;58.30;;;;;;5011865;28;20033;-81
2022/05/22 12:12:04;;;;;;;2.38;1.10;;;25.60;58.70;;;;;;5003353;28;20026;-85
2022/05/22 12:14:56;;;;;;;2.55;0.95;;;25.50;58.60;;;;;;5009217;28;20570;-79
2022/05/22 12:17:30;;;;;;;2.85;1.40;;;25.10;59.00;;;;;;5010405;28;20045;-82
2022/05/22 12:20:01;;;;;;;1.95;0.90;;;25.10;59.40;;;;;;5020462;28;20022;-83
2022/05/22 12:25:19;;;;;;;1.92;1.00;;;25.10;59.70;;;;;;5029882;28;20080;-82
2022/05/22 12:27:46;;;;;;;4.28;1.15;;;25.20;59.50;;;;;;5013961;28;20079;-82
2022/05/22 12:30:31;;;;;;;2.05;1.00;;;25.40;60.50;;;;;;5019872;28;20038;-83
2022/05/22 12:33:05;;;;;;;3.15;1.25;;;25.60;60.00;;;;;;5024248;28;20026;-83
2022/05/22 12:35:31;;;;;;;2.72;1.50;;;25.70;60.20;;;;;;5022824;28;20030;-84
2022/05/22 12:38:17;;;;;;;1.80;1.00;;;25.80;60.70;;;;;;5020736;28;20006;-85
2022/05/22 12:41:11;;;;;;;3.42;1.42;;;25.80;60.60;;;;;;5036119;28;20097;-80
2022/05/22 12:43:56;;;;;;;2.55;1.02;;;25.70;60.30;;;;;;5034245;28;20026;-83
2022/05/22 12:46:25;;;;;;;2.50;0.95;;;25.70;60.00;;;;;;5029007;28;20033;-82
2022/05/22 12:49:20;;;;;;;3.30;1.10;;;25.70;60.60;;;;;;5029221;28;20478;-83
2022/05/22 12:51:58;;;;;;;1.50;1.00;;;25.40;59.40;;;;;;5023035;28;20030;-84
2022/05/22 12:54:26;;;;;;;2.53;1.20;;;25.30;60.50;;;;;;5028156;28;20048;-82
2022/05/22 12:57:05;;;;;;;2.78;1.38;;;25.30;61.00;;;;;;5042033;28;20035;-85
2022/05/22 12:59:30;;;;;;;2.58;1.42;;;25.60;62.70;;;;;;5019654;28;20045;-81
2022/05/22 13:01:58;;;;;;;2.92;1.20;;;25.90;61.60;;;;;;5025958;28;20522;-82
2022/05/22 13:04:42;;;;;;;1.75;0.90;;;26.10;60.50;;;;;;5024141;28;20037;-81
2022/05/22 13:07:11;;;;;;;4.28;1.58;;;26.20;59.80;;;;;;5028981;28;20026;-83
2022/05/22 13:09:44;;;;;;;3.72;1.10;;;26.60;59.40;;;;;;5022976;28;20026;-81
2022/05/22 13:12:24;;;;;;;3.53;1.55;;;;;;;;;;5016320;28;20026;-84
2022/05/22 13:14:55;;;;;;;3.70;0.98;;;26.30;57.50;;;;;;5022006;28;20100;-79
2022/05/22 13:17:35;;;;;;;2.60;1.00;;;26.40;68.70;;;;;;5015679;28;20034;-82
2022/05/22 13:20:08;;;;;;;2.40;1.10;;;26.40;62.50;;;;;;5023637;28;20030;-80
2022/05/22 13:22:37;;;;;;;3.05;1.00;;;26.50;57.50;;;;;;5028166;28;20037;-81
2022/05/22 13:25:07;;;;;;;3.75;1.08;;;26.40;57.60;;;;;;5023675;28;20034;-81
2022/05/22 13:27:38;;;;;;;;;;;26.40;58.00;;;;;;5009185;28;20092;-79
2022/05/22 13:30:13;;;;;;;2.83;1.20;;;26.10;58.50;;;;;;5019113;28;19916;-81
2022/05/22 13:33:08;;;;;;;2.30;1.00;;;25.90;58.70;;;;;;5026612;28;20041;-80
2022/05/22 13:35:55;;;;;;;2.40;1.20;;;25.70;59.20;;;;;;5028037;28;20018;-81